createdAt,value
2023-03-22T00:00:02.221Z,5.38
2023-03-22T00:00:37.453Z,5.90
2023-03-22T00:01:12.053Z,6.28
2023-03-22T00:01:43.838Z,5.90
2023-03-22T00:02:16.425Z,5.97
2023-03-22T00:02:48.169Z,6.18
2023-03-22T00:03:20.355Z,6.00
2023-03-22T00:03:52.933Z,6.05
2023-03-22T00:04:24.663Z,5.70
2023-03-22T00:04:56.431Z,5.53
2023-03-22T00:05:30.441Z,6.20
2023-03-22T00:06:02.076Z,6.13
2023-03-22T00:06:33.712Z,6.20
2023-03-22T00:07:05.325Z,5.30
2023-03-22T00:07:37.753Z,6.50
2023-03-22T00:08:10.001Z,6.25
2023-03-22T00:08:41.772Z,4.93
2023-03-22T00:09:13.373Z,6.60
2023-03-22T00:09:45.403Z,5.97
2023-03-22T00:10:17.754Z,5.50
2023-03-22T00:10:49.572Z,6.03
2023-03-22T00:11:24.150Z,5.63
2023-03-22T00:11:55.751Z,6.07
2023-03-22T00:12:27.390Z,5.43
2023-03-22T00:12:59.273Z,5.55
2023-03-22T00:13:33.362Z,5.93
2023-03-22T00:14:06.249Z,5.82
2023-03-22T00:14:38.048Z,6.70
2023-03-22T00:15:13.440Z,5.95
2023-03-22T00:15:48.639Z,5.80
2023-03-22T00:16:21.740Z,5.22
2023-03-22T00:16:53.482Z,6.57
2023-03-22T00:17:26.353Z,5.80
2023-03-22T00:17:59.041Z,6.00
2023-03-22T00:18:30.764Z,6.45
2023-03-22T00:19:02.517Z,5.13
2023-03-22T00:19:34.276Z,4.82
2023-03-22T00:20:07.241Z,6.90
2023-03-22T00:20:40.396Z,5.15
2023-03-22T00:21:15.771Z,5.80
2023-03-22T00:21:47.750Z,6.07
2023-03-22T00:22:19.470Z,4.80
2023-03-22T00:22:51.298Z,4.85
2023-03-22T00:23:23.562Z,5.75
2023-03-22T00:23:55.305Z,6.22
2023-03-22T00:24:27.043Z,5.22
2023-03-22T00:24:59.316Z,5.70
2023-03-22T00:25:31.276Z,5.18
2023-03-22T00:26:02.880Z,4.03
2023-03-22T00:26:34.621Z,4.60
2023-03-22T00:27:06.463Z,5.15
2023-03-22T00:27:38.530Z,5.15
2023-03-22T00:28:11.876Z,6.03
2023-03-22T00:28:43.741Z,4.60
2023-03-22T00:29:16.056Z,4.68
2023-03-22T00:29:47.691Z,4.97
2023-03-22T00:30:20.881Z,4.47
2023-03-22T00:31:00.247Z,4.30
2023-03-22T00:31:32.187Z,5.75
2023-03-22T00:32:04.370Z,5.43
2023-03-22T00:32:37.292Z,5.00
2023-03-22T00:33:09.547Z,5.72
2023-03-22T00:33:41.616Z,5.13
2023-03-22T00:34:15.355Z,4.68
2023-03-22T00:34:47.072Z,4.93
2023-03-22T00:35:18.895Z,4.68
2023-03-22T00:35:59.006Z,5.15
2023-03-22T00:36:30.570Z,4.82
2023-03-22T00:37:02.186Z,4.93
2023-03-22T00:37:34.259Z,4.57
2023-03-22T00:38:06.212Z,5.05
2023-03-22T00:38:42.879Z,3.97
2023-03-22T00:39:15.704Z,4.10
2023-03-22T00:39:47.952Z,4.38
2023-03-22T00:40:19.550Z,4.03
2023-03-22T00:40:51.450Z,5.00
2023-03-22T00:41:23.921Z,4.97
2023-03-22T00:41:55.914Z,4.57
2023-03-22T00:42:27.690Z,4.88
2023-03-22T00:42:59.614Z,4.70
2023-03-22T00:43:33.235Z,4.50
2023-03-22T00:44:05.032Z,4.75
2023-03-22T00:44:37.096Z,4.57
2023-03-22T00:45:11.092Z,4.90
2023-03-22T00:45:43.102Z,4.57
2023-03-22T00:46:16.512Z,4.95
2023-03-22T00:46:48.073Z,4.40
2023-03-22T00:47:19.673Z,3.92
2023-03-22T00:47:51.233Z,4.93
2023-03-22T00:48:23.748Z,4.03
2023-03-22T00:48:55.778Z,4.22
2023-03-22T00:49:27.753Z,4.30
2023-03-22T00:49:59.617Z,4.45
2023-03-22T00:50:31.176Z,4.85
2023-03-22T00:51:03.730Z,4.65
2023-03-22T00:51:37.391Z,5.40
2023-03-22T00:52:09.023Z,4.10
2023-03-22T00:52:40.938Z,4.22
2023-03-22T00:53:13.010Z,4.70
2023-03-22T00:53:44.930Z,4.63
2023-03-22T00:54:17.377Z,4.20
2023-03-22T00:54:49.123Z,4.90
2023-03-22T00:55:20.696Z,4.45
2023-03-22T00:55:52.299Z,4.72
2023-03-22T00:56:28.633Z,4.40
2023-03-22T00:57:05.595Z,4.43
2023-03-22T00:57:37.838Z,4.57
2023-03-22T00:58:09.673Z,3.72
2023-03-22T00:58:42.624Z,4.97
2023-03-22T00:59:14.469Z,3.97
2023-03-22T00:59:47.786Z,3.90
2023-03-22T01:00:19.503Z,4.15
2023-03-22T01:00:51.207Z,4.10
2023-03-22T01:01:23.070Z,4.53
2023-03-22T01:01:56.632Z,4.00
2023-03-22T01:02:29.859Z,3.53
2023-03-22T01:03:04.494Z,4.45
2023-03-22T01:03:36.240Z,3.97
2023-03-22T01:04:08.390Z,4.13
2023-03-22T01:04:46.641Z,4.78
2023-03-22T01:05:21.911Z,4.05
2023-03-22T01:05:56.708Z,4.22
2023-03-22T01:06:28.283Z,3.53
2023-03-22T01:07:02.037Z,3.78
2023-03-22T01:07:33.967Z,4.05
2023-03-22T01:08:10.537Z,4.05
2023-03-22T01:08:42.275Z,5.50
2023-03-22T01:09:15.098Z,3.65
2023-03-22T01:09:50.817Z,3.45
2023-03-22T01:10:22.455Z,3.80
2023-03-22T01:10:54.212Z,5.43
2023-03-22T01:11:26.619Z,4.53
2023-03-22T01:11:58.787Z,4.65
2023-03-22T01:12:30.636Z,3.40
2023-03-22T01:13:02.424Z,3.22
2023-03-22T01:13:34.933Z,4.88
2023-03-22T01:14:09.711Z,4.35
2023-03-22T01:14:41.855Z,4.43
2023-03-22T01:15:13.853Z,3.95
2023-03-22T01:15:47.908Z,4.07
2023-03-22T01:16:19.721Z,4.13
2023-03-22T01:16:55.000Z,3.20
2023-03-22T01:17:26.675Z,3.50
2023-03-22T01:17:58.870Z,3.92
2023-03-22T01:18:30.600Z,4.50
2023-03-22T01:19:03.780Z,3.75
2023-03-22T01:19:36.962Z,4.05
2023-03-22T01:20:09.713Z,3.65
2023-03-22T01:20:41.596Z,3.38
2023-03-22T01:21:13.660Z,3.40
2023-03-22T01:21:46.730Z,3.50
2023-03-22T01:22:18.573Z,3.50
2023-03-22T01:22:50.219Z,4.25
2023-03-22T01:23:21.887Z,4.55
2023-03-22T01:23:53.558Z,3.55
2023-03-22T01:24:25.377Z,3.70
2023-03-22T01:24:57.001Z,4.00
2023-03-22T01:25:28.531Z,3.67
2023-03-22T01:26:01.378Z,4.03
2023-03-22T01:26:33.300Z,4.82
2023-03-22T01:27:05.003Z,4.85
2023-03-22T01:27:36.651Z,3.92
2023-03-22T01:28:08.751Z,3.85
2023-03-22T01:28:40.969Z,4.38
2023-03-22T01:29:12.785Z,3.92
2023-03-22T01:29:44.403Z,4.40
2023-03-22T01:30:16.027Z,4.15
2023-03-22T01:30:47.897Z,4.50
2023-03-22T01:31:19.502Z,3.65
2023-03-22T01:31:51.603Z,3.97
2023-03-22T01:32:23.443Z,3.85
2023-03-22T01:32:55.207Z,3.05
2023-03-22T01:33:26.927Z,4.18
2023-03-22T01:33:58.600Z,3.88
2023-03-22T01:34:31.616Z,3.63
2023-03-22T01:35:04.606Z,4.72
2023-03-22T01:35:37.413Z,5.05
2023-03-22T01:36:11.047Z,3.80
2023-03-22T01:36:42.766Z,3.40
2023-03-22T01:37:14.562Z,3.80
2023-03-22T01:37:49.822Z,5.28
2023-03-22T01:38:22.327Z,3.42
2023-03-22T01:39:01.170Z,3.80
2023-03-22T01:39:33.232Z,4.22
2023-03-22T01:40:11.058Z,4.07
2023-03-22T01:40:42.889Z,4.88
2023-03-22T01:41:16.541Z,3.47
2023-03-22T01:41:48.864Z,4.32
2023-03-22T01:42:23.195Z,4.63
2023-03-22T01:42:57.284Z,3.95
2023-03-22T01:43:28.918Z,3.90
2023-03-22T01:44:19.404Z,4.35
2023-03-22T01:45:17.840Z,3.67
2023-03-22T01:45:51.505Z,3.33
2023-03-22T01:46:25.839Z,3.45
2023-03-22T01:46:57.724Z,4.28
2023-03-22T01:47:29.557Z,4.07
2023-03-22T01:48:05.950Z,3.97
2023-03-22T01:48:46.249Z,3.75
2023-03-22T01:49:26.514Z,4.47
2023-03-22T01:49:58.305Z,4.78
2023-03-22T01:50:31.214Z,3.72
2023-03-22T01:51:08.936Z,3.75
2023-03-22T01:51:49.856Z,5.32
2023-03-22T01:52:26.333Z,4.13
2023-03-22T01:53:13.767Z,4.55
2023-03-22T01:53:51.105Z,4.20
2023-03-22T01:54:23.030Z,4.32
2023-03-22T01:54:55.057Z,3.80
2023-03-22T01:55:49.712Z,5.13
2023-03-22T01:56:31.642Z,4.68
2023-03-22T01:57:03.956Z,3.95
2023-03-22T01:57:43.869Z,3.95
2023-03-22T01:59:01.133Z,3.72
2023-03-22T01:59:42.982Z,3.30
2023-03-22T02:00:23.366Z,4.28
2023-03-22T02:01:17.642Z,3.25
2023-03-22T02:01:54.190Z,3.85
2023-03-22T02:02:30.844Z,3.65
2023-03-22T02:03:13.114Z,4.28
2023-03-22T02:04:15.357Z,4.13
2023-03-22T02:04:50.916Z,3.28
2023-03-22T02:05:22.916Z,4.18
2023-03-22T02:05:54.837Z,3.47
2023-03-22T02:06:30.110Z,3.90
2023-03-22T02:07:15.650Z,3.72
2023-03-22T02:07:49.950Z,3.50
2023-03-22T02:08:22.141Z,3.35
2023-03-22T02:09:02.343Z,4.10
2023-03-22T02:09:34.164Z,4.22
2023-03-22T02:10:17.555Z,3.53
2023-03-22T02:10:57.005Z,3.65
2023-03-22T02:11:41.664Z,3.75
2023-03-22T02:12:46.786Z,3.13
2023-03-22T02:14:14.956Z,3.85
2023-03-22T02:15:24.147Z,3.35
2023-03-22T02:16:27.205Z,3.42
2023-03-22T02:17:27.624Z,3.00
2023-03-22T02:18:06.462Z,3.63
2023-03-22T02:18:59.789Z,3.53
2023-03-22T02:19:45.587Z,4.60
2023-03-22T02:20:17.743Z,3.60
2023-03-22T02:21:02.483Z,4.65
2023-03-22T02:22:04.820Z,3.80
2023-03-22T02:22:59.138Z,4.32
2023-03-22T02:24:04.651Z,4.40
2023-03-22T02:24:51.701Z,3.80
2023-03-22T02:25:27.442Z,4.93
2023-03-22T02:26:13.717Z,4.70
2023-03-22T02:27:16.018Z,4.50
2023-03-22T02:28:05.137Z,5.07
2023-03-22T02:28:52.568Z,4.75
2023-03-22T02:29:45.006Z,5.13
2023-03-22T02:30:38.206Z,5.25
2023-03-22T02:31:24.710Z,4.88
2023-03-22T02:31:58.530Z,4.60
2023-03-22T02:32:32.623Z,5.53
2023-03-22T02:33:33.208Z,6.35
2023-03-22T02:34:29.288Z,6.38
2023-03-22T02:35:31.908Z,5.72
2023-03-22T02:36:12.723Z,6.47
2023-03-22T02:37:13.334Z,6.18
2023-03-22T02:38:03.291Z,5.60
2023-03-22T02:39:22.714Z,6.00
2023-03-22T02:40:03.907Z,5.78
2023-03-22T02:40:53.050Z,6.15
2023-03-22T02:41:49.118Z,6.00
2023-03-22T02:42:23.313Z,6.78
2023-03-22T02:43:01.340Z,6.85
2023-03-22T02:43:56.439Z,6.65
2023-03-22T02:44:42.255Z,7.43
2023-03-22T02:45:30.173Z,6.07
2023-03-22T02:46:10.308Z,7.97
2023-03-22T02:46:46.561Z,6.95
2023-03-22T02:47:39.625Z,6.25
2023-03-22T02:48:13.557Z,6.85
2023-03-22T02:49:03.086Z,6.68
2023-03-22T02:49:39.146Z,6.88
2023-03-22T02:50:28.441Z,5.85
2023-03-22T02:51:04.021Z,6.72
2023-03-22T02:51:42.924Z,6.63
2023-03-22T02:52:36.122Z,7.00
2023-03-22T02:53:15.027Z,6.53
2023-03-22T02:53:52.937Z,5.57
2023-03-22T02:54:38.235Z,7.35
2023-03-22T02:55:21.082Z,7.78
2023-03-22T02:55:59.576Z,6.47
2023-03-22T02:56:56.363Z,7.22
2023-03-22T02:57:42.593Z,8.45
2023-03-22T02:58:17.957Z,6.65
2023-03-22T02:58:55.153Z,7.53
2023-03-22T02:59:27.468Z,7.07
2023-03-22T03:00:00.239Z,8.23
2023-03-22T03:00:33.391Z,8.05
2023-03-22T03:01:09.615Z,7.72
2023-03-22T03:01:45.410Z,8.10
2023-03-22T03:02:18.478Z,7.97
2023-03-22T03:02:54.826Z,7.75
2023-03-22T03:03:29.366Z,7.57
2023-03-22T03:04:04.831Z,7.95
2023-03-22T03:04:40.225Z,8.68
2023-03-22T03:05:12.367Z,9.25
2023-03-22T03:05:51.029Z,8.75
2023-03-22T03:06:28.897Z,8.25
2023-03-22T03:07:09.409Z,9.35
2023-03-22T03:07:44.797Z,8.57
2023-03-22T03:08:18.083Z,7.82
2023-03-22T03:08:53.459Z,8.02
2023-03-22T03:09:25.230Z,7.60
2023-03-22T03:09:57.312Z,9.82
2023-03-22T03:10:29.242Z,8.68
2023-03-22T03:11:01.430Z,7.68
2023-03-22T03:11:34.045Z,7.93
2023-03-22T03:12:10.402Z,8.70
2023-03-22T03:12:43.357Z,8.50
2023-03-22T03:13:16.703Z,9.48
2023-03-22T03:13:50.415Z,8.60
2023-03-22T03:14:25.262Z,8.02
2023-03-22T03:14:57.588Z,7.88
2023-03-22T03:15:31.145Z,8.93
2023-03-22T03:16:07.550Z,8.80
2023-03-22T03:16:40.242Z,8.15
2023-03-22T03:17:29.769Z,8.88
2023-03-22T03:19:06.858Z,7.50
2023-03-22T03:19:44.349Z,9.60
2023-03-22T03:20:30.481Z,8.85
2023-03-22T03:21:17.120Z,8.73
2023-03-22T03:22:00.611Z,7.97
2023-03-22T03:22:51.102Z,8.70
2023-03-22T03:23:49.515Z,8.65
2023-03-22T03:24:24.484Z,9.15
2023-03-22T03:25:09.471Z,8.98
2023-03-22T03:26:03.976Z,8.60
2023-03-22T03:26:49.031Z,9.32
2023-03-22T03:27:37.215Z,9.30
2023-03-22T03:28:23.014Z,9.38
2023-03-22T03:29:05.980Z,10.82
2023-03-22T03:30:10.047Z,10.30
2023-03-22T03:30:49.378Z,9.13
2023-03-22T03:31:37.681Z,9.10
2023-03-22T03:32:19.542Z,9.68
2023-03-22T03:32:57.071Z,9.73
2023-03-22T03:33:29.461Z,9.65
2023-03-22T03:34:21.043Z,9.30
2023-03-22T03:34:57.276Z,9.15
2023-03-22T03:35:33.639Z,8.77
2023-03-22T03:36:08.796Z,11.73
2023-03-22T03:37:47.135Z,9.68
2023-03-22T03:38:26.506Z,8.55
2023-03-22T03:38:58.435Z,8.77
2023-03-22T03:39:33.503Z,9.15
2023-03-22T03:40:10.816Z,8.45
2023-03-22T03:40:45.888Z,9.48
2023-03-22T03:41:20.534Z,9.55
2023-03-22T03:41:55.463Z,9.77
2023-03-22T03:42:28.654Z,10.10
2023-03-22T03:43:03.706Z,9.57
2023-03-22T03:43:36.113Z,8.95
2023-03-22T03:44:07.942Z,9.27
2023-03-22T03:44:40.012Z,9.23
2023-03-22T03:45:13.578Z,10.13
2023-03-22T03:45:45.839Z,9.23
2023-03-22T03:46:17.745Z,11.25
2023-03-22T03:46:50.996Z,9.63
2023-03-22T03:47:25.287Z,8.52
2023-03-22T03:47:59.679Z,8.70
2023-03-22T03:48:33.634Z,9.48
2023-03-22T03:49:06.185Z,9.30
2023-03-22T03:49:38.039Z,10.18
2023-03-22T03:50:11.761Z,9.00
2023-03-22T03:50:43.611Z,8.98
2023-03-22T03:51:16.803Z,8.85
2023-03-22T03:51:55.797Z,9.88
2023-03-22T03:52:29.380Z,9.73
2023-03-22T03:53:01.607Z,9.05
2023-03-22T03:53:33.265Z,9.30
2023-03-22T03:54:05.079Z,8.65
2023-03-22T03:54:36.878Z,8.57
2023-03-22T03:55:10.657Z,8.95
2023-03-22T03:55:42.434Z,8.38
2023-03-22T03:56:14.205Z,9.10
2023-03-22T03:56:49.849Z,9.90
2023-03-22T03:57:22.135Z,9.55
2023-03-22T03:57:53.864Z,8.75
2023-03-22T03:58:25.644Z,9.50
2023-03-22T03:58:58.295Z,8.90
2023-03-22T03:59:30.265Z,9.45
2023-03-22T04:00:05.674Z,9.38
2023-03-22T04:01:28.499Z,9.00
2023-03-22T04:02:20.516Z,8.98
2023-03-22T04:02:53.004Z,8.65
2023-03-22T04:03:42.340Z,8.30
2023-03-22T04:04:26.702Z,8.95
2023-03-22T04:05:07.443Z,9.00
2023-03-22T04:05:39.279Z,7.93
2023-03-22T04:06:11.053Z,7.80
2023-03-22T04:06:45.744Z,8.40
2023-03-22T04:07:22.090Z,7.97
2023-03-22T04:07:53.658Z,9.43
2023-03-22T04:08:26.170Z,8.73
2023-03-22T04:08:58.163Z,8.40
2023-03-22T04:09:37.109Z,9.63
2023-03-22T04:10:16.646Z,8.50
2023-03-22T04:10:50.694Z,7.45
2023-03-22T04:11:23.283Z,8.82
2023-03-22T04:12:00.362Z,8.38
2023-03-22T04:12:32.551Z,9.52
2023-03-22T04:13:21.497Z,7.88
2023-03-22T04:13:54.054Z,6.57
2023-03-22T04:14:28.188Z,8.30
2023-03-22T04:15:03.030Z,8.20
2023-03-22T04:15:35.298Z,8.73
2023-03-22T04:16:09.850Z,8.50
2023-03-22T04:16:42.757Z,8.10
2023-03-22T04:17:17.982Z,8.88
2023-03-22T04:17:49.953Z,8.73
2023-03-22T04:18:22.440Z,8.20
2023-03-22T04:18:53.998Z,8.48
2023-03-22T04:19:26.137Z,8.18
2023-03-22T04:19:58.064Z,8.88
2023-03-22T04:20:30.088Z,7.95
2023-03-22T04:21:01.991Z,7.70
2023-03-22T04:21:37.960Z,7.15
2023-03-22T04:22:14.593Z,6.75
2023-03-22T04:22:46.957Z,7.35
2023-03-22T04:23:18.502Z,7.90
2023-03-22T04:23:51.462Z,7.53
2023-03-22T04:24:23.163Z,6.10
2023-03-22T04:24:56.561Z,7.03
2023-03-22T04:25:30.495Z,7.30
2023-03-22T04:26:13.230Z,7.45
2023-03-22T04:27:00.471Z,7.10
2023-03-22T04:28:05.182Z,6.15
2023-03-22T04:28:39.619Z,6.88
2023-03-22T04:29:11.362Z,6.55
2023-03-22T04:29:52.231Z,7.05
2023-03-22T04:30:45.769Z,6.97
2023-03-22T04:31:40.159Z,6.65
2023-03-22T04:32:22.955Z,6.63
2023-03-22T04:32:55.440Z,6.70
2023-03-22T04:33:39.308Z,6.93
2023-03-22T04:34:17.718Z,6.05
2023-03-22T04:34:54.710Z,6.55
2023-03-22T04:35:26.519Z,6.32
2023-03-22T04:35:59.466Z,6.63
2023-03-22T04:36:41.034Z,5.68
2023-03-22T04:37:43.123Z,6.35
2023-03-22T04:38:25.300Z,6.00
2023-03-22T04:38:58.626Z,5.57
2023-03-22T04:39:30.420Z,6.25
2023-03-22T04:40:28.484Z,6.75
2023-03-22T04:41:05.451Z,5.65
2023-03-22T04:42:16.246Z,5.78
2023-03-22T04:42:48.621Z,5.18
2023-03-22T04:43:28.003Z,5.95
2023-03-22T04:44:05.902Z,5.88
2023-03-22T04:44:39.639Z,5.78
2023-03-22T04:45:12.708Z,5.30
2023-03-22T04:45:46.287Z,5.35
2023-03-22T04:46:22.009Z,4.72
2023-03-22T04:47:04.671Z,5.45
2023-03-22T04:47:37.453Z,5.78
2023-03-22T04:48:11.670Z,6.10
2023-03-22T04:48:44.051Z,5.25
2023-03-22T04:49:16.956Z,6.10
2023-03-22T04:49:48.594Z,5.82
2023-03-22T04:50:21.362Z,5.10
2023-03-22T04:50:57.342Z,5.80
2023-03-22T04:51:32.493Z,6.50
2023-03-22T04:52:42.706Z,5.93
2023-03-22T04:53:14.255Z,5.53
2023-03-22T04:53:46.301Z,5.63
2023-03-22T04:54:18.057Z,5.45
2023-03-22T04:54:50.845Z,6.72
2023-03-22T04:55:22.982Z,5.18
2023-03-22T04:55:58.732Z,4.95
2023-03-22T04:56:32.163Z,5.55
2023-03-22T04:57:04.621Z,6.28
2023-03-22T04:57:42.813Z,5.25
2023-03-22T04:58:16.512Z,5.22
2023-03-22T04:58:48.277Z,5.63
2023-03-22T04:59:20.408Z,5.68
2023-03-22T04:59:54.423Z,6.15
2023-03-22T05:00:26.281Z,5.97
2023-03-22T05:00:58.536Z,5.82
2023-03-22T05:01:30.542Z,6.35
2023-03-22T05:02:13.161Z,5.95
2023-03-22T05:02:47.533Z,6.97
2023-03-22T05:03:26.103Z,6.63
2023-03-22T05:03:58.159Z,6.65
2023-03-22T05:04:29.743Z,5.95
2023-03-22T05:05:07.940Z,6.47
2023-03-22T05:05:50.919Z,5.43
2023-03-22T05:06:22.582Z,5.68
2023-03-22T05:07:16.855Z,5.30
2023-03-22T05:07:54.643Z,5.43
2023-03-22T05:08:27.698Z,6.28
2023-03-22T05:09:00.970Z,5.63
2023-03-22T05:09:33.414Z,5.93
2023-03-22T05:10:07.005Z,5.63
2023-03-22T05:10:41.578Z,5.53
2023-03-22T05:11:17.441Z,6.25
2023-03-22T05:11:57.641Z,5.68
2023-03-22T05:12:43.148Z,5.43
2023-03-22T05:13:28.202Z,5.45
2023-03-22T05:14:00.384Z,5.47
2023-03-22T05:14:32.738Z,5.70
2023-03-22T05:15:06.147Z,5.63
2023-03-22T05:15:41.835Z,5.45
2023-03-22T05:16:14.600Z,5.82
2023-03-22T05:16:53.532Z,5.85
2023-03-22T05:17:25.076Z,5.53
2023-03-22T05:17:59.529Z,5.47
2023-03-22T05:18:32.805Z,5.15
2023-03-22T05:19:04.489Z,5.38
2023-03-22T05:19:36.498Z,5.95
2023-03-22T05:20:10.262Z,5.22
2023-03-22T05:20:43.762Z,6.07
2023-03-22T05:21:29.402Z,6.35
2023-03-22T05:22:04.006Z,5.18
2023-03-22T05:22:50.768Z,5.47
2023-03-22T05:23:24.374Z,5.30
2023-03-22T05:23:59.322Z,6.13
2023-03-22T05:24:31.612Z,4.72
2023-03-22T05:25:05.460Z,5.43
2023-03-22T05:25:38.428Z,5.43
2023-03-22T05:26:10.767Z,5.97
2023-03-22T05:26:42.494Z,6.35
2023-03-22T05:27:15.888Z,5.13
2023-03-22T05:27:50.189Z,6.28
2023-03-22T05:28:40.333Z,5.68
2023-03-22T05:29:17.059Z,4.95
2023-03-22T05:30:07.380Z,5.35
2023-03-22T05:30:49.561Z,4.55
2023-03-22T05:31:41.413Z,5.28
2023-03-22T05:32:13.093Z,5.63
2023-03-22T05:32:45.056Z,5.43
2023-03-22T05:33:21.673Z,5.30
2023-03-22T05:33:56.471Z,4.88
2023-03-22T05:34:35.688Z,5.60
2023-03-22T05:35:17.573Z,4.53
2023-03-22T05:35:54.702Z,5.07
2023-03-22T05:36:29.682Z,5.93
2023-03-22T05:37:14.372Z,5.90
2023-03-22T05:37:53.099Z,5.43
2023-03-22T05:38:25.674Z,4.57
2023-03-22T05:39:00.794Z,5.22
2023-03-22T05:39:32.487Z,5.35
2023-03-22T05:40:05.530Z,4.45
2023-03-22T05:40:43.743Z,4.88
2023-03-22T05:41:15.361Z,4.30
2023-03-22T05:41:46.887Z,5.35
2023-03-22T05:42:18.922Z,5.00
2023-03-22T05:42:50.879Z,4.45
2023-03-22T05:43:26.542Z,4.75
2023-03-22T05:43:58.142Z,5.22
2023-03-22T05:44:30.003Z,5.22
2023-03-22T05:45:22.568Z,4.40
2023-03-22T05:46:10.991Z,4.95
2023-03-22T05:46:53.658Z,4.60
2023-03-22T05:47:44.027Z,4.97
2023-03-22T05:48:18.670Z,4.55
2023-03-22T05:48:50.539Z,5.00
2023-03-22T05:49:22.946Z,3.65
2023-03-22T05:49:54.700Z,4.68
2023-03-22T05:50:28.573Z,4.18
2023-03-22T05:51:00.511Z,4.18
2023-03-22T05:51:41.457Z,5.22
2023-03-22T05:52:14.776Z,4.00
2023-03-22T05:52:56.206Z,4.43
2023-03-22T05:53:48.467Z,4.75
2023-03-22T05:54:24.108Z,3.90
2023-03-22T05:54:56.810Z,4.85
2023-03-22T05:55:32.022Z,3.75
2023-03-22T05:56:09.959Z,4.25
2023-03-22T05:56:44.175Z,4.95
2023-03-22T05:57:17.038Z,4.00
2023-03-22T05:57:51.474Z,4.30
2023-03-22T05:58:24.249Z,3.92
2023-03-22T05:58:58.191Z,3.80
2023-03-22T05:59:29.943Z,3.50
2023-03-22T06:00:01.798Z,3.70
2023-03-22T06:00:44.722Z,4.18
2023-03-22T06:01:42.336Z,4.60
2023-03-22T06:02:21.430Z,4.00
2023-03-22T06:02:56.321Z,4.50
2023-03-22T06:03:28.746Z,3.95
2023-03-22T06:04:05.555Z,4.18
2023-03-22T06:04:49.693Z,4.53
2023-03-22T06:05:22.829Z,4.00
2023-03-22T06:05:56.028Z,3.40
2023-03-22T06:06:39.412Z,3.67
2023-03-22T06:07:19.353Z,4.47
2023-03-22T06:08:01.758Z,3.50
2023-03-22T06:08:34.010Z,4.60
2023-03-22T06:09:16.414Z,3.97
2023-03-22T06:09:50.218Z,4.10
2023-03-22T06:10:26.925Z,4.07
2023-03-22T06:10:58.790Z,4.40
2023-03-22T06:11:35.243Z,3.70
2023-03-22T06:12:09.189Z,3.35
2023-03-22T06:12:41.305Z,3.38
2023-03-22T06:13:19.830Z,4.38
2023-03-22T06:13:52.481Z,3.83
2023-03-22T06:14:25.582Z,3.72
2023-03-22T06:15:13.543Z,3.67
2023-03-22T06:15:55.554Z,3.75
2023-03-22T06:16:30.063Z,4.28
2023-03-22T06:17:01.776Z,2.92
2023-03-22T06:17:33.452Z,3.70
2023-03-22T06:18:05.001Z,3.45
2023-03-22T06:18:41.328Z,4.55
2023-03-22T06:19:16.313Z,4.10
2023-03-22T06:19:48.181Z,4.50
2023-03-22T06:20:20.204Z,3.65
2023-03-22T06:20:57.892Z,4.43
2023-03-22T06:21:29.733Z,3.45
2023-03-22T06:22:01.503Z,3.90
2023-03-22T06:22:33.387Z,3.92
2023-03-22T06:23:06.110Z,3.80
2023-03-22T06:23:39.210Z,4.32
2023-03-22T06:24:11.788Z,3.50
2023-03-22T06:24:44.247Z,3.28
2023-03-22T06:25:21.684Z,4.07
2023-03-22T06:25:54.658Z,5.28
2023-03-22T06:26:26.393Z,3.55
2023-03-22T06:26:57.997Z,3.40
2023-03-22T06:27:30.224Z,3.95
2023-03-22T06:28:02.208Z,3.63
2023-03-22T06:28:34.446Z,3.03
2023-03-22T06:29:06.962Z,3.25
2023-03-22T06:29:39.225Z,2.88
2023-03-22T06:30:12.142Z,3.53
2023-03-22T06:31:08.481Z,3.20
2023-03-22T06:32:06.728Z,3.83
2023-03-22T06:32:38.499Z,3.00
2023-03-22T06:33:12.817Z,3.50
2023-03-22T06:33:48.142Z,3.05
2023-03-22T06:34:46.490Z,3.95
2023-03-22T06:35:21.031Z,2.78
2023-03-22T06:35:52.766Z,2.67
2023-03-22T06:36:32.654Z,2.80
2023-03-22T06:37:25.298Z,2.78
2023-03-22T06:37:56.969Z,3.88
2023-03-22T06:38:29.359Z,3.33
2023-03-22T06:39:02.697Z,3.45
2023-03-22T06:39:34.233Z,3.00
2023-03-22T06:40:06.679Z,2.97
2023-03-22T06:40:38.970Z,3.10
2023-03-22T06:41:11.342Z,3.72
2023-03-22T06:41:42.938Z,3.80
2023-03-22T06:42:14.720Z,3.08
2023-03-22T06:42:47.638Z,2.78
2023-03-22T06:43:21.721Z,3.42
2023-03-22T06:43:55.827Z,3.95
2023-03-22T06:44:44.737Z,3.00
2023-03-22T06:45:23.931Z,3.03
2023-03-22T06:45:57.343Z,2.58
2023-03-22T06:46:34.686Z,3.33
2023-03-22T06:47:14.536Z,2.75
2023-03-22T06:48:04.936Z,3.38
2023-03-22T06:48:42.316Z,2.92
2023-03-22T06:49:19.326Z,3.47
2023-03-22T06:49:51.328Z,3.00
2023-03-22T06:50:29.267Z,2.60
2023-03-22T06:51:15.340Z,3.08
2023-03-22T06:51:51.143Z,2.47
2023-03-22T06:52:23.367Z,2.35
2023-03-22T06:52:55.534Z,2.55
2023-03-22T06:53:27.350Z,2.25
2023-03-22T06:53:59.123Z,2.80
2023-03-22T06:54:30.781Z,2.53
2023-03-22T06:55:02.621Z,2.80
2023-03-22T06:55:34.925Z,2.60
2023-03-22T06:56:15.561Z,2.70
2023-03-22T06:56:53.230Z,2.85
2023-03-22T06:57:24.897Z,2.28
2023-03-22T06:57:56.457Z,3.03
2023-03-22T06:58:28.061Z,2.45
2023-03-22T06:59:00.123Z,2.65
2023-03-22T06:59:31.800Z,2.53
2023-03-22T07:00:05.197Z,2.70
2023-03-22T07:00:38.855Z,2.47
2023-03-22T07:01:12.399Z,2.88
2023-03-22T07:01:44.201Z,2.78
2023-03-22T07:02:16.598Z,2.22
2023-03-22T07:03:08.278Z,2.47
2023-03-22T07:03:52.148Z,4.07
2023-03-22T07:04:28.282Z,3.15
2023-03-22T07:05:00.278Z,2.75
2023-03-22T07:05:31.916Z,2.40
2023-03-22T07:06:05.558Z,2.65
2023-03-22T07:06:38.540Z,2.65
2023-03-22T07:07:11.103Z,3.22
2023-03-22T07:07:42.618Z,2.55
2023-03-22T07:08:14.260Z,2.35
2023-03-22T07:08:52.198Z,2.20
2023-03-22T07:09:28.620Z,2.65
2023-03-22T07:10:03.436Z,2.38
2023-03-22T07:10:36.186Z,2.60
2023-03-22T07:11:07.955Z,2.55
2023-03-22T07:11:39.702Z,3.10
2023-03-22T07:12:13.447Z,1.88
2023-03-22T07:12:45.410Z,2.67
2023-03-22T07:13:19.860Z,2.80
2023-03-22T07:13:56.350Z,2.40
2023-03-22T07:14:28.693Z,2.28
2023-03-22T07:15:11.547Z,2.97
2023-03-22T07:16:09.807Z,2.58
2023-03-22T07:16:52.162Z,2.08
2023-03-22T07:17:25.533Z,2.33
2023-03-22T07:17:57.105Z,1.92
2023-03-22T07:18:29.581Z,2.58
2023-03-22T07:19:01.431Z,2.42
2023-03-22T07:19:33.211Z,2.55
2023-03-22T07:20:11.133Z,2.03
2023-03-22T07:20:42.905Z,1.92
2023-03-22T07:21:15.395Z,2.55
2023-03-22T07:21:49.269Z,1.95
2023-03-22T07:22:22.465Z,2.63
2023-03-22T07:22:56.436Z,1.98
2023-03-22T07:23:30.684Z,2.00
2023-03-22T07:24:09.232Z,2.78
2023-03-22T07:24:53.894Z,1.70
2023-03-22T07:25:28.773Z,2.35
2023-03-22T07:26:10.225Z,1.98
2023-03-22T07:26:44.092Z,2.30
2023-03-22T07:27:21.157Z,2.90
2023-03-22T07:27:54.193Z,2.70
2023-03-22T07:28:27.159Z,2.90
2023-03-22T07:29:00.115Z,2.13
2023-03-22T07:29:34.875Z,2.60
2023-03-22T07:30:09.651Z,1.95
2023-03-22T07:30:45.179Z,2.40
2023-03-22T07:31:17.402Z,2.08
2023-03-22T07:32:05.549Z,3.20
2023-03-22T07:32:53.244Z,2.55
2023-03-22T07:33:24.911Z,2.65
2023-03-22T07:33:56.845Z,2.08
2023-03-22T07:34:31.250Z,2.15
2023-03-22T07:35:12.879Z,2.38
2023-03-22T07:35:45.430Z,2.17
2023-03-22T07:36:17.321Z,2.40
2023-03-22T07:36:48.953Z,2.83
2023-03-22T07:37:20.845Z,2.47
2023-03-22T07:37:53.135Z,2.38
2023-03-22T07:38:31.056Z,3.47
2023-03-22T07:39:02.674Z,2.17
2023-03-22T07:39:38.630Z,2.50
2023-03-22T07:40:12.673Z,2.67
2023-03-22T07:40:44.290Z,2.95
2023-03-22T07:41:17.144Z,4.10
2023-03-22T07:42:06.809Z,2.45
2023-03-22T07:43:28.820Z,2.55
2023-03-22T07:44:17.758Z,2.67
2023-03-22T07:45:00.709Z,2.55
2023-03-22T07:45:32.332Z,3.03
2023-03-22T07:46:30.393Z,3.72
2023-03-22T07:47:37.729Z,3.17
2023-03-22T07:48:24.116Z,2.20
2023-03-22T07:49:16.120Z,3.30
2023-03-22T07:50:09.516Z,2.88
2023-03-22T07:50:42.285Z,2.28
2023-03-22T07:51:14.608Z,2.35
2023-03-22T07:51:46.595Z,2.25
2023-03-22T07:52:18.579Z,3.45
2023-03-22T07:52:50.437Z,3.90
2023-03-22T07:53:23.163Z,2.70
2023-03-22T07:53:54.738Z,3.15
2023-03-22T07:54:33.809Z,2.75
2023-03-22T07:55:09.861Z,2.42
2023-03-22T07:55:44.317Z,2.28
2023-03-22T07:56:16.024Z,2.53
2023-03-22T07:56:48.092Z,2.72
2023-03-22T07:57:19.788Z,2.45
2023-03-22T07:58:00.153Z,2.67
2023-03-22T07:58:31.897Z,2.72
2023-03-22T07:59:04.076Z,2.55
2023-03-22T07:59:37.366Z,2.47
2023-03-22T08:00:10.762Z,2.85
2023-03-22T08:00:50.734Z,3.13
2023-03-22T08:01:45.572Z,3.35
2023-03-22T08:02:26.934Z,2.70
2023-03-22T08:03:01.709Z,3.33
2023-03-22T08:03:58.583Z,2.60
2023-03-22T08:04:39.785Z,3.08
2023-03-22T08:05:42.527Z,2.50
2023-03-22T08:06:19.516Z,2.90
2023-03-22T08:06:51.413Z,3.47
2023-03-22T08:07:25.038Z,2.85
2023-03-22T08:07:56.969Z,2.50
2023-03-22T08:08:28.689Z,3.38
2023-03-22T08:09:00.751Z,3.20
2023-03-22T08:09:33.252Z,2.22
2023-03-22T08:10:05.577Z,3.67
2023-03-22T08:10:38.406Z,3.30
2023-03-22T08:11:10.372Z,2.67
2023-03-22T08:11:42.190Z,2.47
2023-03-22T08:12:13.863Z,3.80